createdAt,value
2022-12-31T00:01:07.789Z,0.83
2022-12-31T00:03:36.353Z,1.65
2022-12-31T00:06:12.867Z,0.52
2022-12-31T00:08:41.907Z,1.10
2022-12-31T00:11:09.395Z,0.80
2022-12-31T00:13:37.079Z,0.60
2022-12-31T00:16:12.247Z,0.98
2022-12-31T00:18:44.354Z,1.17
2022-12-31T00:21:12.522Z,1.00
2022-12-31T00:23:40.324Z,0.98
2022-12-31T00:26:10.084Z,1.20
2022-12-31T00:28:38.219Z,1.27
2022-12-31T00:31:07.180Z,0.82
2022-12-31T00:33:34.750Z,1.08
2022-12-31T00:36:06.212Z,1.73
2022-12-31T00:38:33.779Z,0.87
2022-12-31T00:41:01.443Z,0.93
2022-12-31T00:43:30.485Z,1.38
2022-12-31T00:45:58.048Z,1.60
2022-12-31T00:48:26.363Z,1.02
2022-12-31T00:50:54.498Z,1.27
2022-12-31T00:53:22.212Z,0.75
2022-12-31T00:55:49.736Z,0.80
2022-12-31T00:58:17.677Z,1.13
2022-12-31T01:00:46.633Z,0.65
2022-12-31T01:03:14.323Z,1.83
2022-12-31T01:05:50.498Z,0.68
2022-12-31T01:08:18.116Z,1.30
2022-12-31T01:11:06.417Z,0.98
2022-12-31T01:13:33.988Z,0.98
2022-12-31T01:16:08.867Z,0.83
2022-12-31T01:18:38.422Z,0.82
2022-12-31T01:21:07.494Z,1.13
2022-12-31T01:23:35.489Z,1.00
2022-12-31T01:26:08.186Z,0.85
2022-12-31T01:28:36.385Z,1.00
2022-12-31T01:31:04.958Z,0.85
2022-12-31T01:33:34.269Z,1.02
2022-12-31T01:36:05.514Z,1.63
2022-12-31T01:38:33.112Z,1.20
2022-12-31T01:41:01.233Z,0.67
2022-12-31T01:43:49.004Z,0.60
2022-12-31T01:46:19.787Z,0.85
2022-12-31T01:48:50.162Z,0.65
2022-12-31T01:51:18.226Z,0.93
2022-12-31T01:53:46.804Z,0.83
2022-12-31T01:56:15.194Z,0.73
2022-12-31T01:58:44.812Z,0.60
2022-12-31T02:01:15.589Z,0.77
2022-12-31T02:03:43.838Z,0.63
2022-12-31T02:06:16.052Z,0.50
2022-12-31T02:08:44.565Z,0.93
2022-12-31T02:11:26.981Z,1.27
2022-12-31T02:13:58.500Z,0.47
2022-12-31T02:16:31.382Z,0.57
2022-12-31T02:19:01.246Z,0.83
2022-12-31T02:21:53.739Z,0.70
2022-12-31T02:24:37.078Z,0.80
2022-12-31T02:27:07.660Z,0.55
2022-12-31T02:29:42.931Z,0.57
2022-12-31T02:32:14.954Z,0.60
2022-12-31T02:34:48.788Z,0.60
2022-12-31T02:37:22.274Z,0.80
2022-12-31T02:39:50.211Z,0.45
2022-12-31T02:42:17.844Z,0.57
2022-12-31T02:44:45.436Z,0.60
2022-12-31T02:47:21.381Z,0.60
2022-12-31T02:49:55.190Z,0.70
2022-12-31T02:52:29.113Z,0.40
2022-12-31T02:55:01.270Z,0.40
2022-12-31T02:57:31.699Z,0.43
2022-12-31T03:00:19.211Z,0.45
2022-12-31T03:02:49.279Z,0.30
2022-12-31T03:05:18.459Z,0.32
2022-12-31T03:07:46.438Z,0.40
2022-12-31T03:10:14.437Z,0.40
2022-12-31T03:12:48.418Z,0.63
2022-12-31T03:15:26.196Z,0.47
2022-12-31T03:18:00.017Z,0.32
2022-12-31T03:20:46.584Z,0.40
2022-12-31T03:23:15.314Z,0.30
2022-12-31T03:25:44.643Z,0.50
2022-12-31T03:28:13.744Z,0.43
2022-12-31T03:30:42.512Z,0.40
2022-12-31T03:33:14.311Z,0.30
2022-12-31T03:35:42.686Z,0.50
2022-12-31T03:38:10.340Z,0.57
2022-12-31T03:40:39.502Z,0.60
2022-12-31T03:43:07.153Z,0.60
2022-12-31T03:45:35.380Z,0.60
2022-12-31T03:48:03.096Z,0.70
2022-12-31T03:50:32.509Z,0.70
2022-12-31T03:53:00.260Z,0.50
2022-12-31T03:55:27.970Z,0.80
2022-12-31T03:57:55.587Z,0.77
2022-12-31T04:00:23.792Z,0.50
2022-12-31T04:02:51.749Z,0.60
2022-12-31T04:05:19.678Z,0.40
2022-12-31T04:07:48.544Z,0.32
2022-12-31T04:10:18.291Z,0.45
2022-12-31T04:12:45.857Z,0.50
2022-12-31T04:15:17.124Z,0.60
2022-12-31T04:17:44.732Z,0.30
2022-12-31T04:20:12.453Z,0.38
2022-12-31T04:22:39.954Z,0.47
2022-12-31T04:25:11.212Z,0.60
2022-12-31T04:27:39.510Z,0.50
2022-12-31T04:30:07.849Z,0.40
2022-12-31T04:32:35.480Z,0.40
2022-12-31T04:35:03.279Z,0.47
2022-12-31T04:37:30.796Z,0.50
2022-12-31T04:40:03.696Z,0.98
2022-12-31T04:42:37.875Z,0.40
2022-12-31T04:45:05.917Z,0.75
2022-12-31T04:47:33.540Z,0.65
2022-12-31T04:50:01.134Z,0.50
2022-12-31T04:52:28.799Z,1.23
2022-12-31T04:54:56.444Z,0.80
2022-12-31T04:57:24.011Z,0.68
2022-12-31T04:59:53.904Z,0.60
2022-12-31T05:02:21.827Z,1.17
2022-12-31T05:04:49.644Z,0.50
2022-12-31T05:07:17.296Z,1.10
2022-12-31T05:09:44.826Z,0.80
2022-12-31T05:12:12.957Z,1.05
2022-12-31T05:14:40.592Z,1.10
2022-12-31T05:17:09.593Z,1.00
2022-12-31T05:19:37.682Z,0.88
2022-12-31T05:22:22.661Z,1.42
2022-12-31T05:24:52.306Z,1.00
2022-12-31T05:27:19.947Z,0.80
2022-12-31T05:29:47.665Z,0.73
2022-12-31T05:32:16.597Z,1.40
2022-12-31T05:34:44.496Z,1.20
2022-12-31T05:37:14.982Z,1.13
2022-12-31T05:39:42.538Z,1.57
2022-12-31T05:42:10.215Z,1.50
2022-12-31T05:44:37.750Z,0.73
2022-12-31T05:47:05.354Z,1.42
2022-12-31T05:49:34.320Z,0.90
2022-12-31T05:52:02.025Z,1.10
2022-12-31T05:54:29.555Z,1.00
2022-12-31T05:56:57.219Z,0.98
2022-12-31T05:59:25.111Z,1.02
2022-12-31T06:01:52.719Z,1.10
2022-12-31T06:04:20.391Z,0.93
2022-12-31T06:06:49.413Z,1.10
2022-12-31T06:09:17.468Z,0.70
2022-12-31T06:11:45.576Z,0.85
2022-12-31T06:14:13.241Z,2.28
2022-12-31T06:16:41.007Z,1.60
2022-12-31T06:19:09.016Z,1.23
2022-12-31T06:21:39.831Z,1.10
2022-12-31T06:24:09.142Z,1.73
2022-12-31T06:26:37.401Z,2.03
2022-12-31T06:29:04.952Z,1.40
2022-12-31T06:31:32.868Z,2.08
2022-12-31T06:34:00.631Z,1.50
2022-12-31T06:36:28.335Z,1.60
2022-12-31T06:38:56.229Z,1.95
2022-12-31T06:41:25.151Z,1.40
2022-12-31T06:43:52.673Z,2.00
2022-12-31T06:46:20.414Z,2.25
2022-12-31T06:48:48.077Z,1.60
2022-12-31T06:51:17.739Z,2.10
2022-12-31T06:53:45.864Z,2.03
2022-12-31T06:56:15.828Z,1.92
2022-12-31T06:58:45.996Z,2.58
2022-12-31T07:01:24.109Z,2.05
2022-12-31T07:03:56.904Z,2.08
2022-12-31T07:06:29.150Z,2.30
2022-12-31T07:09:01.832Z,1.58
2022-12-31T07:11:31.426Z,2.47
2022-12-31T07:14:10.190Z,2.10
2022-12-31T07:16:43.580Z,1.83
2022-12-31T07:19:17.677Z,2.57
2022-12-31T07:21:45.410Z,2.03
2022-12-31T07:24:13.584Z,2.00
2022-12-31T07:26:56.728Z,2.22
2022-12-31T07:29:30.579Z,2.17
2022-12-31T07:32:02.191Z,2.27
2022-12-31T07:34:39.161Z,2.83
2022-12-31T07:37:09.313Z,2.10
2022-12-31T07:39:40.652Z,1.90
2022-12-31T07:42:12.790Z,1.60
2022-12-31T07:44:48.423Z,1.00
2022-12-31T07:47:21.420Z,1.88
2022-12-31T07:49:50.299Z,1.60
2022-12-31T07:52:18.407Z,1.38
2022-12-31T07:54:46.034Z,1.80
2022-12-31T07:57:15.624Z,1.43
2022-12-31T07:59:52.447Z,1.40
2022-12-31T08:02:25.929Z,1.80
2022-12-31T08:05:00.933Z,1.35
2022-12-31T08:07:34.071Z,1.40
2022-12-31T08:10:04.097Z,1.30
2022-12-31T08:12:33.380Z,0.90
2022-12-31T08:15:03.299Z,1.13
2022-12-31T08:17:30.998Z,1.10
2022-12-31T08:19:59.086Z,0.93
2022-12-31T08:22:36.838Z,0.80
2022-12-31T08:25:12.313Z,1.23
2022-12-31T08:27:44.381Z,0.75
2022-12-31T08:30:14.647Z,1.00
2022-12-31T08:32:44.480Z,0.77
2022-12-31T08:35:17.623Z,0.70
2022-12-31T08:37:50.397Z,1.00
2022-12-31T08:40:22.185Z,1.30
2022-12-31T08:42:56.512Z,1.73
2022-12-31T08:45:27.217Z,2.45
2022-12-31T08:48:00.296Z,1.57
2022-12-31T08:50:28.534Z,1.67
2022-12-31T08:52:56.608Z,2.42
2022-12-31T08:55:24.908Z,2.00
2022-12-31T08:57:58.164Z,1.77
2022-12-31T09:00:28.674Z,2.40
2022-12-31T09:03:01.092Z,2.47
2022-12-31T09:05:33.147Z,2.65
2022-12-31T09:08:12.448Z,1.88
2022-12-31T09:10:41.888Z,2.03
2022-12-31T09:13:13.226Z,2.73
2022-12-31T09:15:44.821Z,2.20
2022-12-31T09:18:13.518Z,2.42
2022-12-31T09:20:43.361Z,2.25
2022-12-31T09:23:12.322Z,1.65
2022-12-31T09:25:43.387Z,1.50
2022-12-31T09:28:15.389Z,1.65
2022-12-31T09:30:47.457Z,1.85
2022-12-31T09:33:17.684Z,1.98
2022-12-31T09:35:49.154Z,1.92
2022-12-31T09:38:19.236Z,1.50
2022-12-31T09:41:07.443Z,1.70
2022-12-31T09:43:58.935Z,2.28
2022-12-31T09:46:41.726Z,2.00
2022-12-31T09:49:28.157Z,1.20
2022-12-31T09:52:01.494Z,1.00
2022-12-31T09:54:37.696Z,1.25
2022-12-31T09:57:17.511Z,2.45
2022-12-31T09:59:47.407Z,1.65
2022-12-31T10:02:20.929Z,1.95
2022-12-31T10:05:01.705Z,1.83
2022-12-31T10:07:36.309Z,0.90
2022-12-31T10:10:10.663Z,1.05
2022-12-31T10:12:55.427Z,1.30
2022-12-31T10:15:36.988Z,1.30
2022-12-31T10:18:10.407Z,1.50
2022-12-31T10:20:45.703Z,1.60
2022-12-31T10:23:33.484Z,1.65
2022-12-31T10:26:12.775Z,1.30
2022-12-31T10:28:46.664Z,1.33
2022-12-31T10:31:15.648Z,1.53
2022-12-31T10:33:46.085Z,1.15
2022-12-31T10:36:19.344Z,1.52
2022-12-31T10:38:50.550Z,0.70
2022-12-31T10:41:39.246Z,1.15
2022-12-31T10:44:21.708Z,1.43
2022-12-31T10:47:04.151Z,1.88
2022-12-31T10:49:48.559Z,1.48
2022-12-31T10:52:49.267Z,1.23
2022-12-31T10:55:40.854Z,1.25
2022-12-31T10:58:26.262Z,1.10
2022-12-31T11:00:55.683Z,1.10
2022-12-31T11:03:48.657Z,0.75
2022-12-31T11:06:40.246Z,0.90
2022-12-31T11:09:34.214Z,1.08
2022-12-31T11:12:09.775Z,1.03
2022-12-31T11:15:04.346Z,1.10
2022-12-31T11:17:39.502Z,1.45
2022-12-31T11:20:31.556Z,0.77
2022-12-31T11:23:04.323Z,1.20
2022-12-31T11:25:35.842Z,1.07
2022-12-31T11:28:09.484Z,1.08
2022-12-31T11:30:45.655Z,1.05
2022-12-31T11:33:18.213Z,1.20
2022-12-31T11:35:56.388Z,0.75
2022-12-31T11:38:26.499Z,1.20
2022-12-31T11:40:59.387Z,0.70
2022-12-31T11:43:31.634Z,1.05
2022-12-31T11:46:09.340Z,0.90
2022-12-31T11:48:42.798Z,0.90
2022-12-31T11:51:24.005Z,0.90
2022-12-31T11:54:04.976Z,1.17
2022-12-31T11:56:34.315Z,0.80
2022-12-31T11:59:09.285Z,1.60
2022-12-31T12:01:48.862Z,1.35
2022-12-31T12:04:16.561Z,1.57
2022-12-31T12:06:46.007Z,1.30
2022-12-31T12:09:16.009Z,1.48
2022-12-31T12:11:43.763Z,1.52
2022-12-31T12:14:29.549Z,1.90
2022-12-31T12:17:04.413Z,1.67
2022-12-31T12:19:34.262Z,1.27
2022-12-31T12:22:10.220Z,1.45
2022-12-31T12:24:37.854Z,1.20
2022-12-31T12:27:05.574Z,0.88
2022-12-31T12:29:35.297Z,1.27
2022-12-31T12:32:05.273Z,0.90
2022-12-31T12:34:36.279Z,0.90
2022-12-31T12:37:04.464Z,0.98
2022-12-31T12:39:33.196Z,0.73
2022-12-31T12:42:03.603Z,0.70
2022-12-31T12:44:31.684Z,0.63
2022-12-31T12:46:59.668Z,0.68
2022-12-31T12:49:29.639Z,0.93
2022-12-31T12:52:20.601Z,0.80
2022-12-31T12:54:56.931Z,0.63
2022-12-31T12:57:29.894Z,0.43
2022-12-31T13:00:01.080Z,0.60
2022-12-31T13:02:35.421Z,0.55
2022-12-31T13:05:15.711Z,0.32
2022-12-31T13:07:50.011Z,0.37
2022-12-31T13:10:23.037Z,0.30
2022-12-31T13:15:48.003Z,0.40
2022-12-31T13:18:33.406Z,0.28
2022-12-31T13:21:04.603Z,0.53
2022-12-31T13:23:39.702Z,0.30
2022-12-31T13:26:10.222Z,0.30
2022-12-31T13:28:42.004Z,0.40
2022-12-31T13:31:12.280Z,0.47
2022-12-31T13:33:42.261Z,0.20
2022-12-31T13:36:16.973Z,0.30
2022-12-31T13:38:46.207Z,0.40
2022-12-31T13:41:16.088Z,0.35
2022-12-31T13:43:50.806Z,0.40
2022-12-31T13:46:20.483Z,0.30
2022-12-31T13:48:50.605Z,0.35
2022-12-31T13:51:24.272Z,0.40
2022-12-31T13:53:54.750Z,0.40
2022-12-31T13:56:25.827Z,0.20
2022-12-31T13:58:55.754Z,0.50
2022-12-31T14:01:30.738Z,0.30
2022-12-31T14:04:06.333Z,0.40
2022-12-31T14:06:40.789Z,0.30
2022-12-31T14:09:10.416Z,0.40
2022-12-31T14:11:45.406Z,0.40
2022-12-31T14:14:16.789Z,0.80
2022-12-31T14:16:47.019Z,0.30
2022-12-31T14:19:19.592Z,0.47
2022-12-31T14:21:49.872Z,0.60
2022-12-31T14:24:31.021Z,0.40
2022-12-31T14:27:00.579Z,0.40
2022-12-31T14:29:32.812Z,0.40
2022-12-31T14:32:17.639Z,0.40
2022-12-31T14:34:49.708Z,0.40
2022-12-31T14:37:23.005Z,0.70
2022-12-31T14:39:54.011Z,0.30
2022-12-31T14:42:26.475Z,0.40
2022-12-31T14:45:00.766Z,0.38
2022-12-31T14:47:34.044Z,0.60
2022-12-31T14:50:06.250Z,0.70
2022-12-31T14:52:36.727Z,0.57
2022-12-31T14:55:21.856Z,0.40
2022-12-31T15:00:38.574Z,0.50
2022-12-31T15:03:07.094Z,0.70
2022-12-31T15:05:35.469Z,0.52
2022-12-31T15:08:10.947Z,1.02
2022-12-31T15:10:43.475Z,0.88
2022-12-31T15:13:17.444Z,1.20
2022-12-31T15:15:52.186Z,1.23
2022-12-31T15:18:33.031Z,1.10
2022-12-31T15:21:21.778Z,1.63
2022-12-31T15:23:52.545Z,1.25
2022-12-31T15:26:25.287Z,1.10
2022-12-31T15:29:00.674Z,1.20
2022-12-31T15:31:28.826Z,1.30
2022-12-31T15:34:00.615Z,1.20
2022-12-31T15:36:29.651Z,1.23
2022-12-31T15:39:23.961Z,1.65
2022-12-31T15:42:36.312Z,1.67
2022-12-31T15:44:45.965Z,1.02
2022-12-31T15:47:18.034Z,1.70
2022-12-31T15:49:46.551Z,1.02
2022-12-31T15:52:15.391Z,1.77
2022-12-31T15:54:47.231Z,0.90
2022-12-31T15:57:17.208Z,1.10
2022-12-31T15:59:44.895Z,1.98
2022-12-31T16:02:19.576Z,1.33
2022-12-31T16:04:48.312Z,0.70
2022-12-31T16:07:17.143Z,1.23
2022-12-31T16:09:48.364Z,1.67
2022-12-31T16:12:20.794Z,0.82
2022-12-31T16:14:52.325Z,1.10
2022-12-31T16:17:25.101Z,1.70
2022-12-31T16:19:52.738Z,1.27
2022-12-31T16:22:27.413Z,1.20
2022-12-31T16:27:45.803Z,0.80
2022-12-31T16:30:20.693Z,0.88
2022-12-31T16:32:49.526Z,1.10
2022-12-31T16:35:24.284Z,1.10
2022-12-31T16:38:03.420Z,0.82
2022-12-31T16:40:32.399Z,0.90
2022-12-31T16:42:59.990Z,0.60
2022-12-31T16:45:32.381Z,0.50
2022-12-31T16:48:02.036Z,0.60
2022-12-31T16:50:30.358Z,0.70
2022-12-31T16:53:00.327Z,0.80
2022-12-31T16:55:29.665Z,0.93
2022-12-31T16:58:00.454Z,1.07
2022-12-31T17:00:28.109Z,1.00
2022-12-31T17:03:01.442Z,1.42
2022-12-31T17:05:29.253Z,1.50
2022-12-31T17:07:56.829Z,1.48
2022-12-31T17:10:26.438Z,1.57
2022-12-31T17:15:44.891Z,1.85
2022-12-31T17:18:14.698Z,1.67
2022-12-31T17:20:42.237Z,1.95
2022-12-31T17:23:10.096Z,1.10
2022-12-31T17:25:38.471Z,1.83
2022-12-31T17:28:06.918Z,1.15
2022-12-31T17:30:40.221Z,1.25
2022-12-31T17:33:29.288Z,2.00
2022-12-31T17:35:57.792Z,1.30
2022-12-31T17:38:33.941Z,1.13
2022-12-31T17:41:04.303Z,1.00
2022-12-31T17:43:35.190Z,1.10
2022-12-31T17:46:03.883Z,0.82
2022-12-31T17:48:33.096Z,1.13
2022-12-31T17:51:01.881Z,0.95
2022-12-31T17:53:33.319Z,1.45
2022-12-31T17:56:04.054Z,0.95
2022-12-31T17:58:33.103Z,1.33
2022-12-31T18:01:00.912Z,0.73
2022-12-31T18:03:28.649Z,1.10
2022-12-31T18:05:57.619Z,1.25
2022-12-31T18:08:25.358Z,0.93
2022-12-31T18:10:53.402Z,0.98
2022-12-31T18:13:21.790Z,0.73
2022-12-31T18:15:49.356Z,1.05
2022-12-31T18:18:24.761Z,1.23
2022-12-31T18:20:55.620Z,0.88
2022-12-31T18:23:26.752Z,1.10
2022-12-31T18:25:58.120Z,1.77
2022-12-31T18:28:26.188Z,1.17
2022-12-31T18:30:53.848Z,0.90
2022-12-31T18:33:25.021Z,0.68
2022-12-31T18:36:10.039Z,0.70
2022-12-31T18:38:40.508Z,0.67
2022-12-31T18:41:08.438Z,0.88
2022-12-31T18:43:36.002Z,0.75
2022-12-31T18:46:03.714Z,0.60
2022-12-31T18:48:31.321Z,0.60
2022-12-31T18:50:58.995Z,0.40
2022-12-31T18:53:26.632Z,0.38
2022-12-31T18:55:56.067Z,0.47
2022-12-31T18:58:23.928Z,0.40
2022-12-31T19:00:51.906Z,0.47
2022-12-31T19:03:25.209Z,0.60
2022-12-31T19:05:53.658Z,0.40
2022-12-31T19:08:22.367Z,0.30
2022-12-31T19:10:51.083Z,0.38
2022-12-31T19:13:20.924Z,0.28
2022-12-31T19:15:49.489Z,0.30
2022-12-31T19:18:17.096Z,0.55
2022-12-31T19:20:44.691Z,0.30
2022-12-31T19:23:14.595Z,0.40
2022-12-31T19:25:42.241Z,0.30
2022-12-31T19:28:15.567Z,0.37
2022-12-31T19:30:44.840Z,0.50
2022-12-31T19:33:12.621Z,0.30
2022-12-31T19:35:41.534Z,0.43
2022-12-31T19:38:16.845Z,0.50
2022-12-31T19:40:44.591Z,0.50
2022-12-31T19:43:12.819Z,0.40
2022-12-31T19:45:41.361Z,0.70
2022-12-31T19:48:12.179Z,0.80
2022-12-31T19:50:41.884Z,0.70
2022-12-31T19:53:11.316Z,0.57
2022-12-31T19:55:38.848Z,0.40
2022-12-31T19:58:06.435Z,0.35
2022-12-31T20:00:34.188Z,0.50
2022-12-31T20:03:01.900Z,0.60
2022-12-31T20:05:30.879Z,0.40
2022-12-31T20:07:58.556Z,0.40
2022-12-31T20:10:26.163Z,0.45
2022-12-31T20:12:53.863Z,0.30
2022-12-31T20:15:21.423Z,0.47
2022-12-31T20:17:49.008Z,0.40
2022-12-31T20:20:16.824Z,0.40
2022-12-31T20:22:45.843Z,0.28
2022-12-31T20:25:13.379Z,0.40
2022-12-31T20:27:41.051Z,0.50
2022-12-31T20:30:10.708Z,0.43
2022-12-31T20:32:38.348Z,0.45
2022-12-31T20:35:06.454Z,0.30
2022-12-31T20:37:34.201Z,0.20
2022-12-31T20:40:03.065Z,0.40
2022-12-31T20:42:31.096Z,0.30
2022-12-31T20:44:58.769Z,0.40
2022-12-31T20:47:26.298Z,0.50
2022-12-31T20:50:10.857Z,0.43
2022-12-31T20:52:39.347Z,0.50
2022-12-31T20:55:09.690Z,0.33
2022-12-31T20:57:38.237Z,0.50
2022-12-31T21:00:07.431Z,0.50
2022-12-31T21:02:41.932Z,0.20
2022-12-31T21:05:10.549Z,0.40
2022-12-31T21:07:38.313Z,0.40
2022-12-31T21:10:06.277Z,0.40
2022-12-31T21:12:53.207Z,0.30
2022-12-31T21:15:22.016Z,0.50
2022-12-31T21:17:49.565Z,0.30
2022-12-31T21:20:17.192Z,0.50
2022-12-31T21:22:44.877Z,0.30
2022-12-31T21:25:12.577Z,0.40
2022-12-31T21:27:42.746Z,0.30
2022-12-31T21:30:19.792Z,0.20
2022-12-31T21:32:47.993Z,0.40
2022-12-31T21:35:42.338Z,0.38
2022-12-31T21:38:07.575Z,0.40
2022-12-31T21:40:35.187Z,0.57
2022-12-31T21:43:04.601Z,0.60
2022-12-31T21:45:32.428Z,0.50
2022-12-31T21:48:19.886Z,0.63
2022-12-31T21:50:48.880Z,0.50
2022-12-31T21:53:23.490Z,1.00
2022-12-31T21:56:11.069Z,0.55
2022-12-31T21:58:41.009Z,0.40
2022-12-31T22:01:28.796Z,0.40
2022-12-31T22:03:56.451Z,0.50
2022-12-31T22:06:25.000Z,0.93
2022-12-31T22:08:54.082Z,0.95
2022-12-31T22:11:22.729Z,0.70
2022-12-31T22:13:51.949Z,1.00
2022-12-31T22:16:20.460Z,0.95
2022-12-31T22:18:48.507Z,0.70
2022-12-31T22:21:19.235Z,1.80
2022-12-31T22:23:47.899Z,0.87
2022-12-31T22:26:19.965Z,1.13
2022-12-31T22:28:47.938Z,0.65
2022-12-31T22:31:18.076Z,0.90
2022-12-31T22:33:45.992Z,0.50
2022-12-31T22:36:14.641Z,0.70
2022-12-31T22:38:42.513Z,0.63
2022-12-31T22:41:11.185Z,0.80
2022-12-31T22:43:40.311Z,0.60
2022-12-31T22:46:09.007Z,0.50
2022-12-31T22:48:37.973Z,0.70
2022-12-31T22:51:06.165Z,0.60
2022-12-31T22:53:34.235Z,0.30
2022-12-31T22:56:12.122Z,0.40
2022-12-31T22:58:39.782Z,0.55
2022-12-31T23:01:07.795Z,0.83
2022-12-31T23:03:35.640Z,0.75
2022-12-31T23:06:04.794Z,0.60
2022-12-31T23:08:32.478Z,0.47
2022-12-31T23:11:00.939Z,0.70
2022-12-31T23:13:50.542Z,0.37
2022-12-31T23:16:40.704Z,0.70
2022-12-31T23:19:26.188Z,0.45
2022-12-31T23:22:12.491Z,0.50
2022-12-31T23:24:40.333Z,0.40
2022-12-31T23:27:08.358Z,0.50
2022-12-31T23:29:45.572Z,0.70
2022-12-31T23:32:14.714Z,0.57
2022-12-31T23:34:43.560Z,0.40
2022-12-31T23:37:12.840Z,0.40
2022-12-31T23:39:40.495Z,0.53
2022-12-31T23:42:08.198Z,0.50
2022-12-31T23:44:35.771Z,0.32
2022-12-31T23:47:05.407Z,0.40
2022-12-31T23:49:33.043Z,0.30
2022-12-31T23:52:01.610Z,0.30
2022-12-31T23:54:31.658Z,0.68
2022-12-31T23:56:59.224Z,0.50
2022-12-31T23:59:26.989Z,0.50
